sensor_id;sensor_type;location;lat;lon;timestamp;temperature;humidity
71627;DHT22;59475;52.464;13.590;2022-07-11T06:54:18;18.10;64.08
71627;DHT22;59475;52.464;13.590;2022-07-11T07:02:22;17.68;65.34
71627;DHT22;59475;52.464;13.590;2022-07-11T07:04:51;17.89;64.77
71627;DHT22;59475;52.464;13.590;2022-07-11T07:07:16;18.43;65.58
71627;DHT22;59475;52.464;13.590;2022-07-11T07:09:42;19.41;61.62
71627;DHT22;59475;52.464;13.590;2022-07-11T07:12:07;20.16;58.26
71627;DHT22;59475;52.464;13.590;2022-07-11T07:14:32;20.77;56.57
71627;DHT22;59475;52.464;13.590;2022-07-11T07:16:58;20.09;57.01
71627;DHT22;59475;52.464;13.590;2022-07-11T07:19:23;19.92;56.61
71627;DHT22;59475;52.464;13.590;2022-07-11T07:21:48;19.05;59.17
71627;DHT22;59475;52.464;13.590;2022-07-11T07:24:14;19.06;59.19
71627;DHT22;59475;52.464;13.590;2022-07-11T07:26:39;18.75;61.03
71627;DHT22;59475;52.464;13.590;2022-07-11T07:29:04;18.54;61.04
71627;DHT22;59475;52.464;13.590;2022-07-11T07:31:29;18.62;61.88
71627;DHT22;59475;52.464;13.590;2022-07-11T07:33:55;19.16;60.26
71627;DHT22;59475;52.464;13.590;2022-07-11T07:36:20;19.07;60.61
71627;DHT22;59475;52.464;13.590;2022-07-11T07:38:45;19.27;59.28
71627;DHT22;59475;52.464;13.590;2022-07-11T07:41:15;19.60;58.46
71627;DHT22;59475;52.464;13.590;2022-07-11T07:43:41;20.20;57.56
71627;DHT22;59475;52.464;13.590;2022-07-11T07:46:06;20.53;55.25
71627;DHT22;59475;52.464;13.590;2022-07-11T07:48:34;21.36;55.04
71627;DHT22;59475;52.464;13.590;2022-07-11T07:51:00;22.19;51.04
71627;DHT22;59475;52.464;13.590;2022-07-11T07:53:25;22.70;48.96
71627;DHT22;59475;52.464;13.590;2022-07-11T07:55:50;21.95;50.68
71627;DHT22;59475;52.464;13.590;2022-07-11T07:58:16;21.88;51.79
71627;DHT22;59475;52.464;13.590;2022-07-11T08:00:42;22.35;50.12
71627;DHT22;59475;52.464;13.590;2022-07-11T08:03:26;22.56;49.43
71627;DHT22;59475;52.464;13.590;2022-07-11T08:05:51;22.18;49.54
71627;DHT22;59475;52.464;13.590;2022-07-11T08:08:17;22.52;51.42
71627;DHT22;59475;52.464;13.590;2022-07-11T08:10:42;23.24;49.87
71627;DHT22;59475;52.464;13.590;2022-07-11T08:13:07;23.45;47.56
71627;DHT22;59475;52.464;13.590;2022-07-11T08:15:33;23.80;47.94
71627;DHT22;59475;52.464;13.590;2022-07-11T08:17:58;23.34;46.58
71627;DHT22;59475;52.464;13.590;2022-07-11T08:20:23;22.53;48.43
71627;DHT22;59475;52.464;13.590;2022-07-11T08:22:49;22.21;50.16
71627;DHT22;59475;52.464;13.590;2022-07-11T08:25:14;22.22;50.59
71627;DHT22;59475;52.464;13.590;2022-07-11T08:27:39;22.38;50.07
71627;DHT22;59475;52.464;13.590;2022-07-11T08:30:07;22.55;49.74
71627;DHT22;59475;52.464;13.590;2022-07-11T08:32:33;22.87;49.21
71627;DHT22;59475;52.464;13.590;2022-07-11T08:34:59;22.36;49.47
71627;DHT22;59475;52.464;13.590;2022-07-11T08:37:24;22.90;49.58
71627;DHT22;59475;52.464;13.590;2022-07-11T08:39:49;23.74;48.03
71627;DHT22;59475;52.464;13.590;2022-07-11T08:42:18;22.42;49.77
71627;DHT22;59475;52.464;13.590;2022-07-11T08:44:44;22.16;51.16
71627;DHT22;59475;52.464;13.590;2022-07-11T08:47:10;22.87;48.85
71627;DHT22;59475;52.464;13.590;2022-07-11T08:49:36;23.24;47.83
71627;DHT22;59475;52.464;13.590;2022-07-11T08:52:02;23.67;47.03
71627;DHT22;59475;52.464;13.590;2022-07-11T08:54:28;24.13;45.23
71627;DHT22;59475;52.464;13.590;2022-07-11T08:56:55;23.03;46.96
71627;DHT22;59475;52.464;13.590;2022-07-11T08:59:22;23.39;46.99
71627;DHT22;59475;52.464;13.590;2022-07-11T09:01:49;22.76;48.09
71627;DHT22;59475;52.464;13.590;2022-07-11T09:04:17;23.39;46.45
71627;DHT22;59475;52.464;13.590;2022-07-11T09:06:42;23.93;44.57
71627;DHT22;59475;52.464;13.590;2022-07-11T09:09:08;24.34;43.13
71627;DHT22;59475;52.464;13.590;2022-07-11T09:14:45;24.18;43.05
71627;DHT22;59475;52.464;13.590;2022-07-11T09:17:11;23.84;42.52
71627;DHT22;59475;52.464;13.590;2022-07-11T09:19:36;23.58;45.05
71627;DHT22;59475;52.464;13.590;2022-07-11T09:22:13;22.60;47.82
71627;DHT22;59475;52.464;13.590;2022-07-11T09:25:11;22.41;48.15
71627;DHT22;59475;52.464;13.590;2022-07-11T09:28:05;21.66;48.53
71627;DHT22;59475;52.464;13.590;2022-07-11T09:30:35;22.39;46.54
71627;DHT22;59475;52.464;13.590;2022-07-11T09:33:06;22.96;46.53
71627;DHT22;59475;52.464;13.590;2022-07-11T09:35:32;22.77;46.58
71627;DHT22;59475;52.464;13.590;2022-07-11T09:37:58;22.42;48.46
71627;DHT22;59475;52.464;13.590;2022-07-11T09:40:24;22.33;46.04
71627;DHT22;59475;52.464;13.590;2022-07-11T09:42:55;22.41;46.86
71627;DHT22;59475;52.464;13.590;2022-07-11T09:45:23;23.53;44.19
71627;DHT22;59475;52.464;13.590;2022-07-11T09:47:51;23.96;42.41
71627;DHT22;59475;52.464;13.590;2022-07-11T09:50:24;24.48;41.24
71627;DHT22;59475;52.464;13.590;2022-07-11T09:55:28;24.66;42.44
71627;DHT22;59475;52.464;13.590;2022-07-11T09:57:54;23.18;44.39
71627;DHT22;59475;52.464;13.590;2022-07-11T10:00:19;22.31;46.22
71627;DHT22;59475;52.464;13.590;2022-07-11T10:02:45;21.90;47.00
71627;DHT22;59475;52.464;13.590;2022-07-11T10:05:11;22.71;45.33
71627;DHT22;59475;52.464;13.590;2022-07-11T10:07:36;23.96;42.79
71627;DHT22;59475;52.464;13.590;2022-07-11T10:10:04;23.73;43.54
71627;DHT22;59475;52.464;13.590;2022-07-11T10:12:30;22.81;45.08
71627;DHT22;59475;52.464;13.590;2022-07-11T10:15:00;22.19;45.59
71627;DHT22;59475;52.464;13.590;2022-07-11T10:20:34;23.19;45.69
71627;DHT22;59475;52.464;13.590;2022-07-11T10:28:39;24.25;40.24
71627;DHT22;59475;52.464;13.590;2022-07-11T10:31:21;24.80;38.92
71627;DHT22;59475;52.464;13.590;2022-07-11T10:34:04;24.03;41.96
71627;DHT22;59475;52.464;13.590;2022-07-11T10:36:34;23.31;43.56
71627;DHT22;59475;52.464;13.590;2022-07-11T10:39:18;24.03;42.85
71627;DHT22;59475;52.464;13.590;2022-07-11T10:41:44;24.31;41.24
71627;DHT22;59475;52.464;13.590;2022-07-11T10:44:11;23.92;42.41
71627;DHT22;59475;52.464;13.590;2022-07-11T10:46:36;24.06;41.00
71627;DHT22;59475;52.464;13.590;2022-07-11T10:54:21;24.49;39.68
71627;DHT22;59475;52.464;13.590;2022-07-11T10:57:08;24.38;38.89
71627;DHT22;59475;52.464;13.590;2022-07-11T11:02:21;25.37;37.74
71627;DHT22;59475;52.464;13.590;2022-07-11T11:04:57;26.22;37.85
71627;DHT22;59475;52.464;13.590;2022-07-11T11:07:42;27.34;35.51
71627;DHT22;59475;52.464;13.590;2022-07-11T11:15:52;28.61;32.91
71627;DHT22;59475;52.464;13.590;2022-07-11T11:23:32;25.85;37.24
71627;DHT22;59475;52.464;13.590;2022-07-11T11:26:13;25.44;37.49
71627;DHT22;59475;52.464;13.590;2022-07-11T11:31:19;25.07;38.24
71627;DHT22;59475;52.464;13.590;2022-07-11T11:33:46;25.07;38.59
71627;DHT22;59475;52.464;13.590;2022-07-11T11:36:15;25.74;36.10
71627;DHT22;59475;52.464;13.590;2022-07-11T11:38:42;26.14;36.80
71627;DHT22;59475;52.464;13.590;2022-07-11T11:41:08;26.12;37.06
71627;DHT22;59475;52.464;13.590;2022-07-11T11:43:35;25.76;36.99
71627;DHT22;59475;52.464;13.590;2022-07-11T11:46:01;26.06;36.83
71627;DHT22;59475;52.464;13.590;2022-07-11T11:50:59;24.21;38.71
71627;DHT22;59475;52.464;13.590;2022-07-11T11:53:25;23.65;39.80
71627;DHT22;59475;52.464;13.590;2022-07-11T11:55:50;23.26;40.53
71627;DHT22;59475;52.464;13.590;2022-07-11T11:58:16;23.04;41.69
71627;DHT22;59475;52.464;13.590;2022-07-11T12:00:41;23.01;41.97
71627;DHT22;59475;52.464;13.590;2022-07-11T12:03:06;22.97;42.00
71627;DHT22;59475;52.464;13.590;2022-07-11T12:05:32;23.29;42.21
71627;DHT22;59475;52.464;13.590;2022-07-11T12:07:57;23.92;40.18
71627;DHT22;59475;52.464;13.590;2022-07-11T12:10:23;23.61;38.32
71627;DHT22;59475;52.464;13.590;2022-07-11T12:12:48;23.65;39.56
71627;DHT22;59475;52.464;13.590;2022-07-11T12:15:31;23.38;40.51
71627;DHT22;59475;52.464;13.590;2022-07-11T12:18:02;23.37;40.82
71627;DHT22;59475;52.464;13.590;2022-07-11T12:20:42;23.17;42.52
71627;DHT22;59475;52.464;13.590;2022-07-11T12:23:14;22.93;42.53
71627;DHT22;59475;52.464;13.590;2022-07-11T12:25:40;22.84;42.07
71627;DHT22;59475;52.464;13.590;2022-07-11T12:28:06;23.28;42.74
71627;DHT22;59475;52.464;13.590;2022-07-11T12:30:33;23.74;38.94
71627;DHT22;59475;52.464;13.590;2022-07-11T12:33:09;24.10;38.39
71627;DHT22;59475;52.464;13.590;2022-07-11T12:35:35;24.42;38.23
71627;DHT22;59475;52.464;13.590;2022-07-11T12:38:01;25.10;38.13
71627;DHT22;59475;52.464;13.590;2022-07-11T12:40:26;25.10;37.94
71627;DHT22;59475;52.464;13.590;2022-07-11T12:42:51;24.79;37.72
71627;DHT22;59475;52.464;13.590;2022-07-11T12:45:17;24.25;39.15
71627;DHT22;59475;52.464;13.590;2022-07-11T12:47:44;24.47;39.67
71627;DHT22;59475;52.464;13.590;2022-07-11T12:50:26;24.52;39.06
71627;DHT22;59475;52.464;13.590;2022-07-11T12:52:56;24.55;38.96
71627;DHT22;59475;52.464;13.590;2022-07-11T12:58:03;25.58;36.94
71627;DHT22;59475;52.464;13.590;2022-07-11T13:00:29;24.56;37.86
71627;DHT22;59475;52.464;13.590;2022-07-11T13:02:56;24.73;38.64
71627;DHT22;59475;52.464;13.590;2022-07-11T13:05:22;24.59;37.74
71627;DHT22;59475;52.464;13.590;2022-07-11T13:07:47;24.69;38.02
71627;DHT22;59475;52.464;13.590;2022-07-11T13:10:31;24.45;38.34
71627;DHT22;59475;52.464;13.590;2022-07-11T13:13:16;23.62;39.12
71627;DHT22;59475;52.464;13.590;2022-07-11T13:15:41;23.25;40.17
71627;DHT22;59475;52.464;13.590;2022-07-11T13:18:07;23.22;40.04
71627;DHT22;59475;52.464;13.590;2022-07-11T13:20:34;23.46;40.97
71627;DHT22;59475;52.464;13.590;2022-07-11T13:23:00;23.52;39.32
71627;DHT22;59475;52.464;13.590;2022-07-11T13:25:26;23.83;39.53
71627;DHT22;59475;52.464;13.590;2022-07-11T13:27:52;24.07;39.51
71627;DHT22;59475;52.464;13.590;2022-07-11T13:30:19;24.11;39.12
71627;DHT22;59475;52.464;13.590;2022-07-11T13:32:50;24.08;39.78
71627;DHT22;59475;52.464;13.590;2022-07-11T13:35:17;24.08;37.90
71627;DHT22;59475;52.464;13.590;2022-07-11T13:37:43;23.84;38.40
71627;DHT22;59475;52.464;13.590;2022-07-11T13:40:14;23.86;39.54
71627;DHT22;59475;52.464;13.590;2022-07-11T13:42:41;23.45;39.66
71627;DHT22;59475;52.464;13.590;2022-07-11T13:45:07;23.31;40.36
71627;DHT22;59475;52.464;13.590;2022-07-11T13:47:34;23.07;39.89
71627;DHT22;59475;52.464;13.590;2022-07-11T13:50:00;22.93;40.79
71627;DHT22;59475;52.464;13.590;2022-07-11T13:52:26;22.76;41.11
71627;DHT22;59475;52.464;13.590;2022-07-11T13:54:51;22.94;41.79
71627;DHT22;59475;52.464;13.590;2022-07-11T13:57:17;23.35;41.02
71627;DHT22;59475;52.464;13.590;2022-07-11T13:59:43;23.79;39.42
71627;DHT22;59475;52.464;13.590;2022-07-11T14:02:08;24.01;38.93
71627;DHT22;59475;52.464;13.590;2022-07-11T14:04:34;23.96;39.50
71627;DHT22;59475;52.464;13.590;2022-07-11T14:06:59;23.62;39.39
71627;DHT22;59475;52.464;13.590;2022-07-11T14:09:25;23.66;40.65
71627;DHT22;59475;52.464;13.590;2022-07-11T14:11:51;23.66;40.30
71627;DHT22;59475;52.464;13.590;2022-07-11T14:14:17;23.63;40.81
71627;DHT22;59475;52.464;13.590;2022-07-11T14:16:42;23.45;41.97
71627;DHT22;59475;52.464;13.590;2022-07-11T14:19:08;22.98;42.11
71627;DHT22;59475;52.464;13.590;2022-07-11T14:21:36;23.01;42.05
71627;DHT22;59475;52.464;13.590;2022-07-11T14:24:03;22.84;42.16
71627;DHT22;59475;52.464;13.590;2022-07-11T14:26:28;22.83;42.73
71627;DHT22;59475;52.464;13.590;2022-07-11T14:28:55;22.71;42.74
71627;DHT22;59475;52.464;13.590;2022-07-11T14:31:20;22.57;43.12
71627;DHT22;59475;52.464;13.590;2022-07-11T14:33:48;22.41;43.21
71627;DHT22;59475;52.464;13.590;2022-07-11T14:36:14;22.32;44.09
71627;DHT22;59475;52.464;13.590;2022-07-11T14:38:39;22.41;43.94
71627;DHT22;59475;52.464;13.590;2022-07-11T14:41:05;22.26;43.94
71627;DHT22;59475;52.464;13.590;2022-07-11T14:43:30;22.26;44.14
71627;DHT22;59475;52.464;13.590;2022-07-11T14:45:57;22.28;43.56
71627;DHT22;59475;52.464;13.590;2022-07-11T14:48:22;22.45;43.39
71627;DHT22;59475;52.464;13.590;2022-07-11T14:50:47;22.45;42.67
71627;DHT22;59475;52.464;13.590;2022-07-11T14:53:13;22.70;43.37
71627;DHT22;59475;52.464;13.590;2022-07-11T14:55:38;22.98;43.37
71627;DHT22;59475;52.464;13.590;2022-07-11T14:58:04;23.29;42.23
71627;DHT22;59475;52.464;13.590;2022-07-11T15:00:30;23.44;41.51
71627;DHT22;59475;52.464;13.590;2022-07-11T15:02:56;23.65;41.26
71627;DHT22;59475;52.464;13.590;2022-07-11T15:05:40;23.80;40.46
71627;DHT22;59475;52.464;13.590;2022-07-11T15:08:06;23.76;39.20
71627;DHT22;59475;52.464;13.590;2022-07-11T15:10:50;23.35;39.39
71627;DHT22;59475;52.464;13.590;2022-07-11T15:13:33;23.03;40.21
71627;DHT22;59475;52.464;13.590;2022-07-11T15:15:59;22.87;41.18
71627;DHT22;59475;52.464;13.590;2022-07-11T15:18:24;22.96;41.31
71627;DHT22;59475;52.464;13.590;2022-07-11T15:20:49;23.10;39.96
71627;DHT22;59475;52.464;13.590;2022-07-11T15:23:15;23.25;39.95
71627;DHT22;59475;52.464;13.590;2022-07-11T15:25:40;23.32;40.12
71627;DHT22;59475;52.464;13.590;2022-07-11T15:28:06;23.51;40.23
71627;DHT22;59475;52.464;13.590;2022-07-11T15:30:31;23.61;40.38
71627;DHT22;59475;52.464;13.590;2022-07-11T15:32:56;23.29;41.04
71627;DHT22;59475;52.464;13.590;2022-07-11T15:35:22;23.05;41.37
71627;DHT22;59475;52.464;13.590;2022-07-11T15:37:47;23.01;41.69
71627;DHT22;59475;52.464;13.590;2022-07-11T15:40:12;22.93;42.23
71627;DHT22;59475;52.464;13.590;2022-07-11T15:42:38;22.86;42.12
71627;DHT22;59475;52.464;13.590;2022-07-11T15:45:04;22.86;42.26
71627;DHT22;59475;52.464;13.590;2022-07-11T15:47:29;22.74;42.01
71627;DHT22;59475;52.464;13.590;2022-07-11T15:49:55;22.61;42.07
71627;DHT22;59475;52.464;13.590;2022-07-11T15:52:20;22.49;42.12
71627;DHT22;59475;52.464;13.590;2022-07-11T15:54:45;22.50;42.49
71627;DHT22;59475;52.464;13.590;2022-07-11T15:57:10;22.55;42.87
71627;DHT22;59475;52.464;13.590;2022-07-11T15:59:36;22.56;42.00
71627;DHT22;59475;52.464;13.590;2022-07-11T16:02:01;22.52;42.52
71627;DHT22;59475;52.464;13.590;2022-07-11T16:04:26;22.63;42.96
71627;DHT22;59475;52.464;13.590;2022-07-11T16:06:52;22.63;42.03
71627;DHT22;59475;52.464;13.590;2022-07-11T16:09:18;22.64;42.76
71627;DHT22;59475;52.464;13.590;2022-07-11T16:11:43;22.73;42.65
71627;DHT22;59475;52.464;13.590;2022-07-11T16:14:09;22.69;43.06
71627;DHT22;59475;52.464;13.590;2022-07-11T16:16:34;22.59;43.07
71627;DHT22;59475;52.464;13.590;2022-07-11T16:18:59;22.42;42.24
71627;DHT22;59475;52.464;13.590;2022-07-11T16:21:27;22.39;42.60
71627;DHT22;59475;52.464;13.590;2022-07-11T16:23:54;22.41;43.36
71627;DHT22;59475;52.464;13.590;2022-07-11T16:26:20;22.31;42.67
71627;DHT22;59475;52.464;13.590;2022-07-11T16:28:45;22.32;43.31
71627;DHT22;59475;52.464;13.590;2022-07-11T16:31:11;22.42;43.12
71627;DHT22;59475;52.464;13.590;2022-07-11T16:33:36;22.38;43.05
71627;DHT22;59475;52.464;13.590;2022-07-11T16:36:02;22.42;43.06
71627;DHT22;59475;52.464;13.590;2022-07-11T16:38:27;22.48;42.87
71627;DHT22;59475;52.464;13.590;2022-07-11T16:40:53;22.39;42.94
71627;DHT22;59475;52.464;13.590;2022-07-11T16:43:37;22.42;43.62
71627;DHT22;59475;52.464;13.590;2022-07-11T16:46:02;22.43;43.15
71627;DHT22;59475;52.464;13.590;2022-07-11T16:48:30;22.45;43.83
71627;DHT22;59475;52.464;13.590;2022-07-11T16:51:02;22.42;43.76
71627;DHT22;59475;52.464;13.590;2022-07-11T16:53:28;22.42;44.26
71627;DHT22;59475;52.464;13.590;2022-07-11T16:55:54;22.26;44.07
71627;DHT22;59475;52.464;13.590;2022-07-11T16:58:20;22.19;44.44
71627;DHT22;59475;52.464;13.590;2022-07-11T17:00:46;22.12;44.24
71627;DHT22;59475;52.464;13.590;2022-07-11T17:03:12;22.18;44.40
71627;DHT22;59475;52.464;13.590;2022-07-11T17:05:39;22.19;44.82
71627;DHT22;59475;52.464;13.590;2022-07-11T17:08:06;22.25;44.89
71627;DHT22;59475;52.464;13.590;2022-07-11T17:10:51;22.23;45.04
71627;DHT22;59475;52.464;13.590;2022-07-11T17:13:16;22.22;44.81
71627;DHT22;59475;52.464;13.590;2022-07-11T17:15:41;22.16;44.31
71627;DHT22;59475;52.464;13.590;2022-07-11T17:18:07;22.14;44.55
71627;DHT22;59475;52.464;13.590;2022-07-11T17:20:33;22.18;44.65
71627;DHT22;59475;52.464;13.590;2022-07-11T17:22:58;22.28;44.59
71627;DHT22;59475;52.464;13.590;2022-07-11T17:25:24;22.42;44.22
71627;DHT22;59475;52.464;13.590;2022-07-11T17:27:49;22.49;44.76
71627;DHT22;59475;52.464;13.590;2022-07-11T17:30:15;22.48;44.09
71627;DHT22;59475;52.464;13.590;2022-07-11T17:32:41;22.55;44.31
71627;DHT22;59475;52.464;13.590;2022-07-11T17:35:07;22.61;44.21
71627;DHT22;59475;52.464;13.590;2022-07-11T17:37:32;22.61;43.73
71627;DHT22;59475;52.464;13.590;2022-07-11T17:39:59;22.60;43.83
71627;DHT22;59475;52.464;13.590;2022-07-11T17:42:25;22.60;43.61
71627;DHT22;59475;52.464;13.590;2022-07-11T17:44:50;22.63;43.73
71627;DHT22;59475;52.464;13.590;2022-07-11T17:47:16;22.55;43.72
71627;DHT22;59475;52.464;13.590;2022-07-11T17:49:41;22.36;43.47
71627;DHT22;59475;52.464;13.590;2022-07-11T17:52:06;22.26;43.84
71627;DHT22;59475;52.464;13.590;2022-07-11T17:54:32;22.19;43.98
71627;DHT22;59475;52.464;13.590;2022-07-11T17:56:57;22.15;44.18
71627;DHT22;59475;52.464;13.590;2022-07-11T17:59:22;22.11;44.41
71627;DHT22;59475;52.464;13.590;2022-07-11T18:01:48;22.01;44.72
71627;DHT22;59475;52.464;13.590;2022-07-11T18:04:14;21.95;44.71
71627;DHT22;59475;52.464;13.590;2022-07-11T18:06:39;21.88;45.22
71627;DHT22;59475;52.464;13.590;2022-07-11T18:09:05;21.81;45.02
71627;DHT22;59475;52.464;13.590;2022-07-11T18:11:30;21.77;45.09
71627;DHT22;59475;52.464;13.590;2022-07-11T18:13:56;21.66;45.58
71627;DHT22;59475;52.464;13.590;2022-07-11T18:16:21;21.60;45.81
71627;DHT22;59475;52.464;13.590;2022-07-11T18:18:47;21.57;46.37
71627;DHT22;59475;52.464;13.590;2022-07-11T18:21:12;21.54;46.36
71627;DHT22;59475;52.464;13.590;2022-07-11T18:23:37;21.46;46.53
71627;DHT22;59475;52.464;13.590;2022-07-11T18:26:03;21.40;47.36
71627;DHT22;59475;52.464;13.590;2022-07-11T18:28:28;21.35;47.80
71627;DHT22;59475;52.464;13.590;2022-07-11T18:30:54;21.29;47.80
71627;DHT22;59475;52.464;13.590;2022-07-11T18:33:19;21.32;47.78
71627;DHT22;59475;52.464;13.590;2022-07-11T18:35:45;21.23;48.18
71627;DHT22;59475;52.464;13.590;2022-07-11T18:38:10;21.18;48.80
71627;DHT22;59475;52.464;13.590;2022-07-11T18:40:35;21.12;49.95
71627;DHT22;59475;52.464;13.590;2022-07-11T18:43:19;21.01;50.08
71627;DHT22;59475;52.464;13.590;2022-07-11T18:45:44;20.87;51.34
71627;DHT22;59475;52.464;13.590;2022-07-11T18:48:10;20.77;51.04
71627;DHT22;59475;52.464;13.590;2022-07-11T18:50:35;20.71;52.37
71627;DHT22;59475;52.464;13.590;2022-07-11T18:53:02;20.65;52.55
71627;DHT22;59475;52.464;13.590;2022-07-11T18:55:27;20.65;52.73
71627;DHT22;59475;52.464;13.590;2022-07-11T18:57:53;20.61;53.68
71627;DHT22;59475;52.464;13.590;2022-07-11T19:00:19;20.60;54.08
71627;DHT22;59475;52.464;13.590;2022-07-11T19:02:44;20.48;54.96
71627;DHT22;59475;52.464;13.590;2022-07-11T19:05:10;20.39;54.91
71627;DHT22;59475;52.464;13.590;2022-07-11T19:07:36;20.33;55.19
71627;DHT22;59475;52.464;13.590;2022-07-11T19:10:03;20.27;56.81
71627;DHT22;59475;52.464;13.590;2022-07-11T19:12:28;20.20;54.86
71627;DHT22;59475;52.464;13.590;2022-07-11T19:14:53;20.16;56.04
71627;DHT22;59475;52.464;13.590;2022-07-11T19:17:20;20.12;57.62
71627;DHT22;59475;52.464;13.590;2022-07-11T19:19:45;20.15;58.56
71627;DHT22;59475;52.464;13.590;2022-07-11T19:22:12;20.09;59.41
71627;DHT22;59475;52.464;13.590;2022-07-11T19:24:43;20.02;57.20
71627;DHT22;59475;52.464;13.590;2022-07-11T19:27:09;19.92;57.54
71627;DHT22;59475;52.464;13.590;2022-07-11T19:29:34;19.86;57.03
71627;DHT22;59475;52.464;13.590;2022-07-11T19:32:00;19.77;57.88
71627;DHT22;59475;52.464;13.590;2022-07-11T19:34:25;19.70;60.31
71627;DHT22;59475;52.464;13.590;2022-07-11T19:36:51;19.61;60.99
71627;DHT22;59475;52.464;13.590;2022-07-11T19:39:16;19.51;61.00
71627;DHT22;59475;52.464;13.590;2022-07-11T19:41:42;19.44;61.42
71627;DHT22;59475;52.464;13.590;2022-07-11T19:44:08;19.38;61.93
71627;DHT22;59475;52.464;13.590;2022-07-11T19:46:34;19.28;62.14
71627;DHT22;59475;52.464;13.590;2022-07-11T19:48:59;19.20;62.43
71627;DHT22;59475;52.464;13.590;2022-07-11T19:51:25;19.07;60.86
71627;DHT22;59475;52.464;13.590;2022-07-11T19:53:51;18.94;61.17
71627;DHT22;59475;52.464;13.590;2022-07-11T19:56:16;18.75;62.07
71627;DHT22;59475;52.464;13.590;2022-07-11T19:59:00;18.60;62.46
71627;DHT22;59475;52.464;13.590;2022-07-11T20:01:27;18.47;63.36
71627;DHT22;59475;52.464;13.590;2022-07-11T20:03:52;18.34;64.02
71627;DHT22;59475;52.464;13.590;2022-07-11T20:06:17;18.23;64.18
71627;DHT22;59475;52.464;13.590;2022-07-11T20:08:43;18.10;64.28
71627;DHT22;59475;52.464;13.590;2022-07-11T20:11:08;17.95;64.68
71627;DHT22;59475;52.464;13.590;2022-07-11T20:13:34;17.90;65.54
71627;DHT22;59475;52.464;13.590;2022-07-11T20:16:00;17.79;66.19
71627;DHT22;59475;52.464;13.590;2022-07-11T20:18:26;17.75;66.98
71627;DHT22;59475;52.464;13.590;2022-07-11T20:20:51;17.61;66.41
71627;DHT22;59475;52.464;13.590;2022-07-11T20:23:16;17.47;65.76
71627;DHT22;59475;52.464;13.590;2022-07-11T20:25:42;17.42;67.11
71627;DHT22;59475;52.464;13.590;2022-07-11T20:28:07;17.32;66.75
71627;DHT22;59475;52.464;13.590;2022-07-11T20:30:32;17.30;67.30
71627;DHT22;59475;52.464;13.590;2022-07-11T20:32:58;17.19;67.45
71627;DHT22;59475;52.464;13.590;2022-07-11T20:35:23;17.13;67.56
71627;DHT22;59475;52.464;13.590;2022-07-11T20:37:48;17.06;68.37
71627;DHT22;59475;52.464;13.590;2022-07-11T20:40:14;16.97;68.08
71627;DHT22;59475;52.464;13.590;2022-07-11T20:42:39;16.90;68.21
71627;DHT22;59475;52.464;13.590;2022-07-11T20:45:05;16.75;68.88
71627;DHT22;59475;52.464;13.590;2022-07-11T20:47:30;16.71;68.89
71627;DHT22;59475;52.464;13.590;2022-07-11T20:49:55;16.68;69.36
71627;DHT22;59475;52.464;13.590;2022-07-11T20:52:21;16.64;69.58
71627;DHT22;59475;52.464;13.590;2022-07-11T20:54:47;16.52;69.99
71627;DHT22;59475;52.464;13.590;2022-07-11T20:57:12;16.51;70.08
71627;DHT22;59475;52.464;13.590;2022-07-11T20:59:37;16.49;70.30
71627;DHT22;59475;52.464;13.590;2022-07-11T21:02:04;16.42;70.66
71627;DHT22;59475;52.464;13.590;2022-07-11T21:04:29;16.37;71.33
71627;DHT22;59475;52.464;13.590;2022-07-11T21:06:56;16.32;70.98
71627;DHT22;59475;52.464;13.590;2022-07-11T21:09:22;16.28;70.90
71627;DHT22;59475;52.464;13.590;2022-07-11T21:11:47;16.25;70.74
71627;DHT22;59475;52.464;13.590;2022-07-11T21:14:13;16.24;71.00
71627;DHT22;59475;52.464;13.590;2022-07-11T21:16:38;16.21;71.75
71627;DHT22;59475;52.464;13.590;2022-07-11T21:19:04;16.18;71.37
71627;DHT22;59475;52.464;13.590;2022-07-11T21:21:29;16.14;71.27
71627;DHT22;59475;52.464;13.590;2022-07-11T21:23:55;16.06;71.73
71627;DHT22;59475;52.464;13.590;2022-07-11T21:26:21;16.00;71.36
71627;DHT22;59475;52.464;13.590;2022-07-11T21:28:47;15.90;71.61
71627;DHT22;59475;52.464;13.590;2022-07-11T21:31:13;15.85;71.75
71627;DHT22;59475;52.464;13.590;2022-07-11T21:33:38;15.80;72.08
71627;DHT22;59475;52.464;13.590;2022-07-11T21:36:04;15.78;72.65
71627;DHT22;59475;52.464;13.590;2022-07-11T21:38:29;15.79;73.08
71627;DHT22;59475;52.464;13.590;2022-07-11T21:40:55;15.70;72.99
71627;DHT22;59475;52.464;13.590;2022-07-11T21:43:21;15.69;73.16
71627;DHT22;59475;52.464;13.590;2022-07-11T21:45:46;15.65;72.68
71627;DHT22;59475;52.464;13.590;2022-07-11T21:48:11;15.58;71.89
71627;DHT22;59475;52.464;13.590;2022-07-11T21:50:37;15.52;72.15
71627;DHT22;59475;52.464;13.590;2022-07-11T21:53:02;15.45;72.75
71627;DHT22;59475;52.464;13.590;2022-07-11T21:55:27;15.39;73.57
71627;DHT22;59475;52.464;13.590;2022-07-11T21:57:52;15.39;73.89
71627;DHT22;59475;52.464;13.590;2022-07-11T22:00:18;15.28;73.67
71627;DHT22;59475;52.464;13.590;2022-07-11T22:02:43;15.27;73.98
71627;DHT22;59475;52.464;13.590;2022-07-11T22:05:09;15.20;73.81
71627;DHT22;59475;52.464;13.590;2022-07-11T22:07:35;15.21;73.83
71627;DHT22;59475;52.464;13.590;2022-07-11T22:10:00;15.14;73.84
71627;DHT22;59475;52.464;13.590;2022-07-11T22:12:26;15.10;73.87
71627;DHT22;59475;52.464;13.590;2022-07-11T22:14:52;15.01;74.01
71627;DHT22;59475;52.464;13.590;2022-07-11T22:17:17;14.94;74.74
71627;DHT22;59475;52.464;13.590;2022-07-11T22:19:43;14.86;74.77
71627;DHT22;59475;52.464;13.590;2022-07-11T22:22:08;14.77;74.91
71627;DHT22;59475;52.464;13.590;2022-07-11T22:24:34;14.69;75.32
71627;DHT22;59475;52.464;13.590;2022-07-11T22:26:59;14.68;75.22
71627;DHT22;59475;52.464;13.590;2022-07-11T22:29:24;14.59;75.37
71627;DHT22;59475;52.464;13.590;2022-07-11T22:31:50;14.56;75.66
71627;DHT22;59475;52.464;13.590;2022-07-11T22:34:15;14.60;76.05
71627;DHT22;59475;52.464;13.590;2022-07-11T22:36:42;14.53;75.81
71627;DHT22;59475;52.464;13.590;2022-07-11T22:39:07;14.45;75.85
71627;DHT22;59475;52.464;13.590;2022-07-11T22:41:32;14.32;76.10
71627;DHT22;59475;52.464;13.590;2022-07-11T22:43:58;14.21;76.49
71627;DHT22;59475;52.464;13.590;2022-07-11T22:46:23;14.11;76.81
71627;DHT22;59475;52.464;13.590;2022-07-11T22:48:48;14.07;76.70
71627;DHT22;59475;52.464;13.590;2022-07-11T22:51:14;14.05;76.56
71627;DHT22;59475;52.464;13.590;2022-07-11T22:53:39;14.04;76.76